Hugo, Minnesota
Current Conditions -  °F | °C
As of 7:45 PM on Monday 22 Dec 2014 (Local Time) from KANE Reporting Station
Drizzle Drizzle  
Wind Chill: 18°   Ceiling: 2400
Heat Index: 37°   Visibility: 4mi
Dew Point: 37°   Wind: 90mph
Humidity: 100%   Direction: 80°E
Pressure: 29.62"   Gusts: NA
Location:  45.16°N, 92.99°W
Report Text: KANE 230145Z 08078KT 4SM -DZ SCT014 OVC024 03/03 A2962
Loading
Personal Weather Stations






























Interactive Weather Map New forecast layout! Learn more

10-Day Weather Forecast

Advertisements
Track Severe Weather on mobile